createdAt,value
2022-12-08T00:01:08.604Z,100691.75
2022-12-08T00:03:36.176Z,100684.22
2022-12-08T00:06:23.152Z,100680.88
2022-12-08T00:09:08.511Z,100673.88
2022-12-08T00:11:35.029Z,100671.34
2022-12-08T00:14:01.657Z,100667.59
2022-12-08T00:16:28.215Z,100668.59
2022-12-08T00:18:54.778Z,100661.44
2022-12-08T00:21:21.243Z,100658.56
2022-12-08T00:23:47.662Z,100657.88
2022-12-08T00:26:14.078Z,100657.72
2022-12-08T00:28:40.478Z,100654.56
2022-12-08T00:31:11.635Z,100657.47
2022-12-08T00:33:38.240Z,100648.44
2022-12-08T00:36:12.821Z,100648.00
2022-12-08T00:38:40.327Z,100644.59
2022-12-08T00:41:14.561Z,100644.06
2022-12-08T00:43:41.373Z,100646.91
2022-12-08T00:46:07.917Z,100634.69
2022-12-08T00:48:34.882Z,100635.13
2022-12-08T00:51:01.391Z,100634.53
2022-12-08T00:53:27.912Z,100631.41
2022-12-08T00:55:54.352Z,100624.69
2022-12-08T00:58:20.756Z,100626.63
2022-12-08T01:00:47.257Z,100626.47
2022-12-08T01:03:13.789Z,100624.84
2022-12-08T01:05:40.293Z,100623.75
2022-12-08T01:08:08.696Z,100618.97
2022-12-08T01:10:36.645Z,100618.16
2022-12-08T01:13:03.352Z,100629.00
2022-12-08T01:15:29.772Z,100620.75
2022-12-08T01:17:56.414Z,100624.69
2022-12-08T01:20:22.910Z,100621.56
2022-12-08T01:22:49.356Z,100622.69
2022-12-08T01:25:15.888Z,100628.97
2022-12-08T01:27:42.295Z,100622.78
2022-12-08T01:30:09.370Z,100623.16
2022-12-08T01:32:35.812Z,100624.13
2022-12-08T01:35:02.399Z,100628.50
2022-12-08T01:37:29.744Z,100612.50
2022-12-08T01:39:56.101Z,100618.06
2022-12-08T01:42:23.688Z,100618.06
2022-12-08T01:44:55.005Z,100619.88
2022-12-08T01:47:24.164Z,100611.41
2022-12-08T01:49:50.650Z,100618.06
2022-12-08T01:52:24.755Z,100615.47
2022-12-08T01:55:00.696Z,100612.75
2022-12-08T01:57:31.466Z,100609.31
2022-12-08T02:00:05.564Z,100611.91
2022-12-08T02:02:42.045Z,100613.41
2022-12-08T02:05:09.777Z,100606.41
2022-12-08T02:07:37.520Z,100602.81
2022-12-08T02:10:05.109Z,100596.28
2022-12-08T02:12:31.931Z,100596.44
2022-12-08T02:15:04.745Z,100600.22
2022-12-08T02:17:53.641Z,100595.31
2022-12-08T02:20:43.101Z,100589.13
2022-12-08T02:23:15.494Z,100590.34
2022-12-08T02:25:48.833Z,100585.81
2022-12-08T02:28:45.480Z,100582.97
2022-12-08T02:31:25.976Z,100572.09
2022-12-08T02:34:12.612Z,100569.63
2022-12-08T02:37:23.172Z,100567.69
2022-12-08T02:40:09.978Z,100560.28
2022-12-08T02:42:55.044Z,100555.09
2022-12-08T02:45:44.932Z,100556.22
2022-12-08T02:48:11.909Z,100553.75
2022-12-08T02:50:38.368Z,100556.50
2022-12-08T02:55:42.981Z,100544.75
2022-12-08T02:58:39.773Z,100540.72
2022-12-08T03:01:17.994Z,100540.28
2022-12-08T03:03:56.528Z,100534.38
2022-12-08T03:06:32.164Z,100540.72
2022-12-08T03:09:07.125Z,100526.34
2022-12-08T03:11:46.535Z,100525.06
2022-12-08T03:14:16.294Z,100524.25
2022-12-08T03:16:47.242Z,100530.44
2022-12-08T03:19:17.401Z,100521.94
2022-12-08T03:21:45.709Z,100519.03
2022-12-08T03:24:15.181Z,100521.34
2022-12-08T03:26:48.407Z,100510.66
2022-12-08T03:29:15.127Z,100501.94
2022-12-08T03:31:49.318Z,100503.38
2022-12-08T03:34:18.212Z,100504.81
2022-12-08T03:36:45.623Z,100503.31
2022-12-08T03:39:12.252Z,100499.88
2022-12-08T03:41:38.655Z,100506.59
2022-12-08T03:44:05.283Z,100498.19
2022-12-08T03:46:31.846Z,100492.16
2022-12-08T03:48:58.217Z,100487.47
2022-12-08T03:51:24.932Z,100489.13
2022-12-08T03:53:51.369Z,100485.16
2022-12-08T03:56:30.756Z,100479.13
2022-12-08T03:58:57.792Z,100468.84
2022-12-08T04:01:24.834Z,100464.28
2022-12-08T04:03:51.333Z,100473.31
2022-12-08T04:06:18.910Z,100472.00
2022-12-08T04:08:45.597Z,100461.13
2022-12-08T04:11:12.185Z,100457.97
2022-12-08T04:13:40.566Z,100467.88
2022-12-08T04:16:08.229Z,100461.34
2022-12-08T04:18:35.816Z,100451.59
2022-12-08T04:21:02.375Z,100449.19
2022-12-08T04:23:28.781Z,100447.53
2022-12-08T04:25:55.213Z,100448.16
2022-12-08T04:28:21.773Z,100440.47
2022-12-08T04:30:49.285Z,100436.78
2022-12-08T04:33:16.094Z,100439.50
2022-12-08T04:35:42.592Z,100435.28
2022-12-08T04:38:09.069Z,100431.69
2022-12-08T04:40:35.483Z,100435.94
2022-12-08T04:43:01.923Z,100434.28
2022-12-08T04:45:28.355Z,100433.34
2022-12-08T04:47:54.769Z,100437.94
2022-12-08T04:50:21.174Z,100434.38
2022-12-08T04:52:47.605Z,100432.56
2022-12-08T04:55:13.966Z,100438.63
2022-12-08T04:57:40.437Z,100440.66
2022-12-08T05:00:07.938Z,100434.97
2022-12-08T05:02:34.628Z,100426.13
2022-12-08T05:05:01.327Z,100425.81
2022-12-08T05:07:27.965Z,100422.97
2022-12-08T05:09:54.428Z,100427.75
2022-12-08T05:12:20.867Z,100425.28
2022-12-08T05:14:48.309Z,100425.13
2022-12-08T05:17:15.891Z,100431.19
2022-12-08T05:19:42.485Z,100424.41
2022-12-08T05:22:09.130Z,100420.75
2022-12-08T05:24:35.644Z,100416.72
2022-12-08T05:27:02.161Z,100417.38
2022-12-08T05:29:28.606Z,100423.19
2022-12-08T05:31:55.125Z,100420.75
2022-12-08T05:34:21.642Z,100426.03
2022-12-08T05:36:48.185Z,100418.53
2022-12-08T05:39:14.874Z,100418.66
2022-12-08T05:41:41.795Z,100412.16
2022-12-08T05:44:08.614Z,100408.09
2022-12-08T05:46:35.403Z,100413.00
2022-12-08T05:49:02.381Z,100401.63
2022-12-08T05:51:28.961Z,100397.06
2022-12-08T05:53:55.657Z,100397.56
2022-12-08T05:56:22.853Z,100395.72
2022-12-08T05:58:50.124Z,100394.25
2022-12-08T06:01:27.713Z,100398.47
2022-12-08T06:03:55.003Z,100390.53
2022-12-08T06:06:21.764Z,100388.41
2022-12-08T06:08:48.847Z,100394.91
2022-12-08T06:11:21.024Z,100395.50
2022-12-08T06:13:47.873Z,100387.25
2022-12-08T06:16:14.321Z,100396.84
2022-12-08T06:18:40.849Z,100392.31
2022-12-08T06:21:09.986Z,100385.75
2022-12-08T06:23:37.028Z,100391.25
2022-12-08T06:26:09.224Z,100385.69
2022-12-08T06:28:36.430Z,100384.56
2022-12-08T06:31:11.703Z,100387.81
2022-12-08T06:33:38.622Z,100397.47
2022-12-08T06:36:06.285Z,100386.72
2022-12-08T06:38:33.110Z,100388.16
2022-12-08T06:41:00.135Z,100386.50
2022-12-08T06:43:27.521Z,100390.75
2022-12-08T06:45:54.068Z,100389.75
2022-12-08T06:48:20.669Z,100387.59
2022-12-08T06:50:47.072Z,100389.69
2022-12-08T06:53:16.638Z,100383.88
2022-12-08T06:56:00.803Z,100390.22
2022-12-08T06:58:27.348Z,100390.91
2022-12-08T07:00:54.225Z,100395.06
2022-12-08T07:03:20.870Z,100399.06
2022-12-08T07:05:47.388Z,100409.59
2022-12-08T07:08:13.895Z,100400.88
2022-12-08T07:10:40.424Z,100405.22
2022-12-08T07:13:06.901Z,100403.09
2022-12-08T07:15:33.293Z,100403.09
2022-12-08T07:18:00.512Z,100409.66
2022-12-08T07:20:27.419Z,100412.94
2022-12-08T07:22:54.204Z,100414.28
2022-12-08T07:25:20.726Z,100420.31
2022-12-08T07:27:48.054Z,100416.19
2022-12-08T07:30:14.921Z,100419.25
2022-12-08T07:32:41.431Z,100422.31
2022-12-08T07:35:08.889Z,100415.53
2022-12-08T07:37:37.481Z,100409.38
2022-12-08T07:40:08.644Z,100407.09
2022-12-08T07:42:35.506Z,100414.47
2022-12-08T07:45:02.258Z,100406.00
2022-12-08T07:47:28.694Z,100407.59
2022-12-08T07:49:55.165Z,100404.28
2022-12-08T07:52:21.561Z,100402.22
2022-12-08T07:54:47.947Z,100404.81
2022-12-08T07:57:14.640Z,100403.03
2022-12-08T07:59:41.110Z,100405.94
2022-12-08T08:02:24.337Z,100407.81
2022-12-08T08:04:51.909Z,100410.09
2022-12-08T08:07:18.383Z,100406.88
2022-12-08T08:09:45.823Z,100413.47
2022-12-08T08:12:30.665Z,100415.44
2022-12-08T08:14:58.960Z,100408.97
2022-12-08T08:17:25.508Z,100409.66
2022-12-08T08:19:52.090Z,100410.75
2022-12-08T08:22:18.478Z,100417.53
2022-12-08T08:24:45.411Z,100413.66
2022-12-08T08:27:12.065Z,100411.88
2022-12-08T08:29:38.536Z,100422.16
2022-12-08T08:32:05.053Z,100418.88
2022-12-08T08:34:31.496Z,100418.50
2022-12-08T08:36:58.037Z,100419.59
2022-12-08T08:39:24.597Z,100422.50
2022-12-08T08:41:51.011Z,100428.16
2022-12-08T08:44:17.451Z,100421.97
2022-12-08T08:46:44.207Z,100414.53
2022-12-08T08:49:10.713Z,100416.16
2022-12-08T08:51:37.200Z,100418.06
2022-12-08T08:54:03.641Z,100415.44
2022-12-08T08:56:30.136Z,100415.44
2022-12-08T08:58:56.626Z,100412.41
2022-12-08T09:01:26.856Z,100411.34
2022-12-08T09:03:54.805Z,100409.13
2022-12-08T09:06:22.021Z,100408.31
2022-12-08T09:08:48.999Z,100417.63
2022-12-08T09:11:18.469Z,100410.63
2022-12-08T09:13:48.254Z,100411.53
2022-12-08T09:16:15.011Z,100416.34
2022-12-08T09:18:41.557Z,100417.78
2022-12-08T09:21:13.006Z,100419.41
2022-12-08T09:23:39.496Z,100418.78
2022-12-08T09:26:07.836Z,100415.84
2022-12-08T09:28:34.281Z,100412.69
2022-12-08T09:31:01.968Z,100412.56
2022-12-08T09:33:28.534Z,100406.22
2022-12-08T09:35:54.928Z,100421.03
2022-12-08T09:38:21.472Z,100418.28
2022-12-08T09:40:53.673Z,100413.75
2022-12-08T09:43:20.046Z,100409.19
2022-12-08T09:45:48.263Z,100410.78
2022-12-08T09:48:22.846Z,100419.56
2022-12-08T09:50:57.249Z,100410.41
2022-12-08T09:53:36.865Z,100420.00
2022-12-08T09:56:12.333Z,100409.03
2022-12-08T09:58:48.929Z,100405.94
2022-12-08T10:01:16.611Z,100400.34
2022-12-08T10:03:43.943Z,100401.84
2022-12-08T10:06:33.537Z,100399.28
2022-12-08T10:09:23.890Z,100404.97
2022-12-08T10:11:56.807Z,100400.34
2022-12-08T10:14:34.139Z,100397.28
2022-12-08T10:17:22.724Z,100404.06
2022-12-08T10:19:55.462Z,100397.38
2022-12-08T10:22:24.746Z,100396.47
2022-12-08T10:25:18.353Z,100390.00
2022-12-08T10:27:48.209Z,100390.31
2022-12-08T10:30:17.071Z,100391.72
2022-12-08T10:32:46.344Z,100384.59
2022-12-08T10:35:15.795Z,100383.16
2022-12-08T10:37:56.908Z,100383.38
2022-12-08T10:40:26.973Z,100385.53
2022-12-08T10:42:57.479Z,100372.00
2022-12-08T10:45:31.122Z,100370.28
2022-12-08T10:48:04.384Z,100373.03
2022-12-08T10:50:36.606Z,100373.03
2022-12-08T10:53:19.732Z,100369.16
2022-12-08T10:55:50.962Z,100370.28
2022-12-08T10:58:42.682Z,100367.31
2022-12-08T11:01:22.223Z,100364.09
2022-12-08T11:04:00.846Z,100368.63
2022-12-08T11:06:30.393Z,100360.00
2022-12-08T11:08:59.740Z,100355.69
2022-12-08T11:11:44.801Z,100357.69
2022-12-08T11:14:25.600Z,100353.28
2022-12-08T11:16:55.922Z,100358.38
2022-12-08T11:19:27.652Z,100354.66
2022-12-08T11:21:54.141Z,100346.22
2022-12-08T11:24:34.647Z,100340.84
2022-12-08T11:27:05.482Z,100339.88
2022-12-08T11:29:33.756Z,100337.72
2022-12-08T11:32:11.512Z,100339.41
2022-12-08T11:35:06.281Z,100339.28
2022-12-08T11:37:43.812Z,100332.72
2022-12-08T11:40:36.209Z,100331.50
2022-12-08T11:43:15.498Z,100336.50
2022-12-08T11:45:42.223Z,100332.72
2022-12-08T11:48:19.123Z,100331.75
2022-12-08T11:50:51.603Z,100328.84
2022-12-08T11:53:29.864Z,100331.44
2022-12-08T11:56:08.352Z,100326.38
2022-12-08T11:58:49.589Z,100325.41
2022-12-08T12:01:22.427Z,100322.34
2022-12-08T12:04:12.460Z,100321.22
2022-12-08T12:06:56.831Z,100318.75
2022-12-08T12:09:58.837Z,100319.06
2022-12-08T12:13:00.075Z,100309.47
2022-12-08T12:16:04.230Z,100314.16
2022-12-08T12:18:49.967Z,100322.34
2022-12-08T12:21:31.114Z,100306.88
2022-12-08T12:24:03.608Z,100312.22
2022-12-08T12:26:32.740Z,100307.00
2022-12-08T12:29:06.646Z,100306.03
2022-12-08T12:31:43.466Z,100308.81
2022-12-08T12:34:34.142Z,100295.78
2022-12-08T12:37:05.887Z,100303.59
2022-12-08T12:39:45.329Z,100299.34
2022-12-08T12:42:43.865Z,100299.72
2022-12-08T12:45:34.088Z,100295.81
2022-12-08T12:48:00.476Z,100298.09
2022-12-08T12:50:32.964Z,100302.19
2022-12-08T12:53:17.918Z,100297.97
2022-12-08T12:55:54.784Z,100297.50
2022-12-08T12:58:30.189Z,100289.31
2022-12-08T13:01:12.508Z,100292.13
2022-12-08T13:04:09.095Z,100290.81
2022-12-08T13:06:40.493Z,100287.84
2022-12-08T13:09:16.888Z,100292.38
2022-12-08T13:11:55.821Z,100287.34
2022-12-08T13:14:47.510Z,100284.09
2022-12-08T13:17:22.666Z,100283.31
2022-12-08T13:20:03.831Z,100280.25
2022-12-08T13:22:50.179Z,100283.47
2022-12-08T13:25:44.377Z,100283.84
2022-12-08T13:28:26.462Z,100293.28
2022-12-08T13:30:59.895Z,100286.28
2022-12-08T13:33:27.818Z,100287.22
2022-12-08T13:36:02.423Z,100292.13
2022-12-08T13:38:32.571Z,100289.81
2022-12-08T13:41:03.274Z,100280.22
2022-12-08T13:44:02.555Z,100280.72
2022-12-08T13:47:09.824Z,100273.88
2022-12-08T13:58:34.453Z,100266.56
2022-12-08T14:01:22.128Z,100263.16
2022-12-08T14:04:31.119Z,100271.75
2022-12-08T14:06:45.543Z,100265.25
2022-12-08T14:09:16.163Z,100263.28
2022-12-08T14:12:03.300Z,100255.47
2022-12-08T14:15:01.259Z,100253.38
2022-12-08T14:17:22.149Z,100252.38
2022-12-08T14:19:57.038Z,100260.22
2022-12-08T14:22:23.986Z,100261.50
2022-12-08T14:24:53.536Z,100259.56
2022-12-08T14:27:23.004Z,100271.63
2022-12-08T14:29:58.230Z,100263.28
2022-12-08T14:32:30.685Z,100267.22
2022-12-08T14:35:03.055Z,100263.94
2022-12-08T14:37:32.855Z,100267.53
2022-12-08T14:40:23.114Z,100270.81
2022-12-08T14:43:06.054Z,100269.16
2022-12-08T14:45:35.322Z,100281.03
2022-12-08T14:48:33.610Z,100272.09
2022-12-08T14:51:18.795Z,100272.69
2022-12-08T14:53:55.430Z,100268.94
2022-12-08T14:56:31.578Z,100269.91
2022-12-08T14:59:19.792Z,100273.94
2022-12-08T15:01:48.102Z,100270.72
2022-12-08T15:04:14.775Z,100268.94
2022-12-08T15:06:51.984Z,100263.72
2022-12-08T15:09:30.959Z,100264.69
2022-12-08T15:12:26.730Z,100275.63
2022-12-08T15:15:15.234Z,100266.63
2022-12-08T15:17:48.858Z,100273.94
2022-12-08T15:20:41.757Z,100267.41
2022-12-08T15:23:21.991Z,100273.75
2022-12-08T15:25:49.364Z,100277.66
2022-12-08T15:28:18.606Z,100275.22
2022-12-08T15:30:45.423Z,100269.19
2022-12-08T15:33:11.831Z,100268.34
2022-12-08T15:35:40.956Z,100268.53
2022-12-08T15:38:30.348Z,100270.47
2022-12-08T15:41:00.673Z,100271.13
2022-12-08T15:43:27.907Z,100276.13
2022-12-08T15:45:59.374Z,100266.38
2022-12-08T15:48:28.517Z,100267.19
2022-12-08T15:50:56.082Z,100271.78
2022-12-08T15:53:22.901Z,100274.72
2022-12-08T15:56:18.815Z,100280.91
2022-12-08T15:58:55.281Z,100275.03
2022-12-08T16:01:23.079Z,100281.81
2022-12-08T16:09:36.967Z,100268.47
2022-12-08T16:12:23.194Z,100275.84
2022-12-08T16:17:36.850Z,100271.91
2022-12-08T16:20:06.334Z,100277.91
2022-12-08T16:25:22.003Z,100278.91
2022-12-08T16:28:17.197Z,100282.13
2022-12-08T16:30:40.706Z,100278.91
2022-12-08T16:33:07.225Z,100273.69
2022-12-08T16:35:33.815Z,100267.81
2022-12-08T16:38:00.381Z,100275.78
2022-12-08T16:40:26.847Z,100274.31
2022-12-08T16:42:53.525Z,100269.91
2022-12-08T16:45:25.757Z,100269.91
2022-12-08T16:47:54.793Z,100268.28
2022-12-08T16:50:29.653Z,100267.44
2022-12-08T16:52:58.703Z,100265.22
2022-12-08T16:55:25.178Z,100270.44
2022-12-08T16:57:51.985Z,100273.69
2022-12-08T17:00:21.499Z,100273.69
2022-12-08T17:02:49.080Z,100267.66
2022-12-08T17:05:17.621Z,100270.44
2022-12-08T17:07:46.115Z,100271.84
2022-12-08T17:10:16.167Z,100275.28
2022-12-08T17:12:43.321Z,100277.41
2022-12-08T17:15:13.084Z,100274.78
2022-12-08T17:17:40.060Z,100270.06
2022-12-08T17:20:09.946Z,100277.22
2022-12-08T17:22:36.381Z,100276.25
2022-12-08T17:25:03.986Z,100280.78
2022-12-08T17:27:30.933Z,100273.66
2022-12-08T17:29:57.432Z,100275.09
2022-12-08T17:32:24.255Z,100274.59
2022-12-08T17:34:50.844Z,100274.31
2022-12-08T17:37:17.692Z,100280.31
2022-12-08T17:39:44.509Z,100275.94
2022-12-08T17:42:11.074Z,100278.38
2022-12-08T17:44:37.545Z,100279.19
2022-12-08T17:47:05.108Z,100276.59
2022-12-08T17:49:32.849Z,100276.25
2022-12-08T17:52:01.827Z,100279.00
2022-12-08T17:54:28.954Z,100281.97
2022-12-08T17:56:58.542Z,100268.94
2022-12-08T17:59:25.728Z,100269.75
2022-12-08T18:01:53.783Z,100263.88
2022-12-08T18:04:20.871Z,100272.97
2022-12-08T18:06:47.496Z,100269.84
2022-12-08T18:09:14.819Z,100260.25
2022-12-08T18:11:42.702Z,100263.97
2022-12-08T18:14:10.324Z,100266.22
2022-12-08T18:16:42.592Z,100271.28
2022-12-08T18:19:12.423Z,100264.81
2022-12-08T18:21:39.712Z,100272.47
2022-12-08T18:24:06.764Z,100266.22
2022-12-08T18:26:33.410Z,100269.63
2022-12-08T18:29:00.010Z,100263.97
2022-12-08T18:31:26.855Z,100271.97
2022-12-08T18:33:53.752Z,100268.38
2022-12-08T18:36:23.936Z,100269.34
2022-12-08T18:38:51.535Z,100265.41
2022-12-08T18:41:20.630Z,100272.25
2022-12-08T18:43:47.094Z,100271.22
2022-12-08T18:46:14.752Z,100275.19
2022-12-08T18:48:44.734Z,100276.78
2022-12-08T18:51:12.777Z,100276.94
2022-12-08T18:53:39.730Z,100273.53
2022-12-08T18:56:06.962Z,100277.63
2022-12-08T18:58:33.687Z,100270.53
2022-12-08T19:01:00.331Z,100268.94
2022-12-08T19:03:26.859Z,100269.28
2022-12-08T19:06:04.666Z,100269.28
2022-12-08T19:08:31.634Z,100269.28
2022-12-08T19:10:58.680Z,100268.56
2022-12-08T19:13:25.604Z,100265.00
2022-12-08T19:15:52.036Z,100268.25
2022-12-08T19:18:18.671Z,100265.28
2022-12-08T19:22:36.767Z,100264.38
2022-12-08T19:25:04.665Z,100258.63
2022-12-08T19:27:33.981Z,100265.94
2022-12-08T19:30:00.649Z,100271.81
2022-12-08T19:32:27.076Z,100280.09
2022-12-08T19:34:53.475Z,100275.69
2022-12-08T19:37:19.890Z,100278.97
2022-12-08T19:40:04.949Z,100281.13
2022-12-08T19:42:49.966Z,100278.16
2022-12-08T19:45:21.511Z,100273.75
2022-12-08T19:47:48.429Z,100271.66
2022-12-08T19:50:34.871Z,100282.25
2022-12-08T19:53:02.057Z,100280.09
2022-12-08T19:55:29.001Z,100280.91
2022-12-08T19:57:56.961Z,100271.78
2022-12-08T20:00:24.004Z,100279.25
2022-12-08T20:02:50.564Z,100282.84
2022-12-08T20:05:16.981Z,100287.06
2022-12-08T20:07:43.861Z,100285.47
2022-12-08T20:10:22.760Z,100275.19
2022-12-08T20:12:49.352Z,100278.16
2022-12-08T20:15:15.954Z,100273.03
2022-12-08T20:17:43.583Z,100284.56
2022-12-08T20:20:10.911Z,100279.38
2022-12-08T20:22:37.528Z,100280.53
2022-12-08T20:25:04.151Z,100278.09
2022-12-08T20:27:30.752Z,100282.63
2022-12-08T20:29:57.118Z,100292.91
2022-12-08T20:32:23.773Z,100286.56
2022-12-08T20:34:50.360Z,100297.00
2022-12-08T20:37:16.725Z,100288.22
2022-12-08T20:39:43.149Z,100288.81
2022-12-08T20:42:13.561Z,100287.78
2022-12-08T20:44:44.135Z,100288.59
2022-12-08T20:47:11.981Z,100285.84
2022-12-08T20:49:38.662Z,100295.44
2022-12-08T20:52:05.589Z,100292.97
2022-12-08T20:54:32.175Z,100298.19
2022-12-08T20:56:59.114Z,100297.22
2022-12-08T20:59:26.678Z,100298.84
2022-12-08T21:01:53.884Z,100299.81
2022-12-08T21:04:21.206Z,100301.25
2022-12-08T21:06:48.083Z,100295.03
2022-12-08T21:09:14.618Z,100295.75
2022-12-08T21:11:41.350Z,100306.44
2022-12-08T21:14:08.009Z,100297.34
2022-12-08T21:16:34.754Z,100301.84
2022-12-08T21:19:01.260Z,100302.88
2022-12-08T21:21:27.739Z,100285.84
2022-12-08T21:23:54.254Z,100286.66
2022-12-08T21:26:25.812Z,100295.97
2022-12-08T21:28:54.719Z,100288.16
2022-12-08T21:31:21.914Z,100294.03
2022-12-08T21:33:49.215Z,100292.09
2022-12-08T21:36:18.394Z,100295.53
2022-12-08T21:38:45.010Z,100296.84
2022-12-08T21:41:15.810Z,100296.31
2022-12-08T21:43:42.827Z,100290.81
2022-12-08T21:46:16.935Z,100297.13
2022-12-08T21:48:43.875Z,100296.75
2022-12-08T21:51:10.320Z,100287.59
2022-12-08T21:53:37.077Z,100287.38
2022-12-08T21:56:08.808Z,100287.91
2022-12-08T21:58:35.399Z,100292.31
2022-12-08T22:01:06.772Z,100294.50
2022-12-08T22:03:33.432Z,100290.97
2022-12-08T22:06:12.314Z,100291.47
2022-12-08T22:08:39.469Z,100292.31
2022-12-08T22:11:08.091Z,100289.53
2022-12-08T22:13:36.641Z,100289.53
2022-12-08T22:16:05.528Z,100290.22
2022-12-08T22:18:32.434Z,100287.59
2022-12-08T22:20:59.245Z,100288.72
2022-12-08T22:23:26.104Z,100290.53
2022-12-08T22:26:00.142Z,100291.78
2022-12-08T22:28:28.349Z,100296.84
2022-12-08T22:30:54.842Z,100303.81
2022-12-08T22:33:21.355Z,100295.34
2022-12-08T22:36:09.668Z,100292.75
2022-12-08T22:38:37.346Z,100285.09
2022-12-08T22:41:05.628Z,100291.25
2022-12-08T22:43:32.660Z,100291.16
2022-12-08T22:45:59.300Z,100298.00
2022-12-08T22:48:26.139Z,100294.00
2022-12-08T22:50:59.001Z,100291.78
2022-12-08T22:53:25.889Z,100286.88
2022-12-08T22:55:52.378Z,100287.97
2022-12-08T22:58:19.878Z,100283.59
2022-12-08T23:00:46.381Z,100289.97
2022-12-08T23:03:12.987Z,100284.09
2022-12-08T23:05:40.538Z,100281.00
2022-12-08T23:08:08.936Z,100281.00
2022-12-08T23:10:35.850Z,100278.91
2022-12-08T23:13:04.142Z,100286.34
2022-12-08T23:15:31.597Z,100284.25
2022-12-08T23:17:58.138Z,100285.81
2022-12-08T23:20:24.902Z,100289.75
2022-12-08T23:22:51.676Z,100288.41
2022-12-08T23:25:18.522Z,100294.88
2022-12-08T23:27:46.153Z,100292.00
2022-12-08T23:30:13.596Z,100280.91
2022-12-08T23:32:40.440Z,100285.38
2022-12-08T23:35:07.979Z,100284.75
2022-12-08T23:37:34.817Z,100281.47
2022-12-08T23:40:01.480Z,100277.63
2022-12-08T23:42:29.959Z,100279.94
2022-12-08T23:44:56.537Z,100273.63
2022-12-08T23:47:23.120Z,100278.16
2022-12-08T23:49:49.535Z,100281.44
2022-12-08T23:52:16.043Z,100281.44
2022-12-08T23:54:42.445Z,100275.13
2022-12-08T23:57:08.890Z,100267.97
2022-12-08T23:59:35.313Z,100272.06
